sensor_id;sensor_type;location;lat;lon;timestamp;P1;durP1;ratioP1;P2;durP2;ratioP2
26953;SDS011;14508;50.924;11.600;2023-02-15T00:01:53;51.33;;;12.88;;
26953;SDS011;14508;50.924;11.600;2023-02-15T00:04:22;42.78;;;15.23;;
26953;SDS011;14508;50.924;11.600;2023-02-15T00:07:15;48.38;;;13.82;;
26953;SDS011;14508;50.924;11.600;2023-02-15T00:09:44;51.97;;;13.80;;
26953;SDS011;14508;50.924;11.600;2023-02-15T00:12:13;41.35;;;13.95;;
26953;SDS011;14508;50.924;11.600;2023-02-15T00:14:43;43.42;;;13.50;;
26953;SDS011;14508;50.924;11.600;2023-02-15T00:17:11;55.78;;;15.10;;
26953;SDS011;14508;50.924;11.600;2023-02-15T00:19:39;35.83;;;12.95;;
26953;SDS011;14508;50.924;11.600;2023-02-15T00:22:07;44.15;;;12.65;;
26953;SDS011;14508;50.924;11.600;2023-02-15T00:24:35;34.72;;;13.07;;
26953;SDS011;14508;50.924;11.600;2023-02-15T00:27:03;45.03;;;12.85;;
26953;SDS011;14508;50.924;11.600;2023-02-15T00:29:31;47.55;;;12.75;;
26953;SDS011;14508;50.924;11.600;2023-02-15T00:32:00;42.50;;;13.07;;
26953;SDS011;14508;50.924;11.600;2023-02-15T00:34:28;43.50;;;12.52;;
26953;SDS011;14508;50.924;11.600;2023-02-15T00:36:56;43.40;;;12.10;;
26953;SDS011;14508;50.924;11.600;2023-02-15T00:39:24;41.75;;;11.90;;
26953;SDS011;14508;50.924;11.600;2023-02-15T00:41:53;42.28;;;12.30;;
26953;SDS011;14508;50.924;11.600;2023-02-15T00:44:21;72.45;;;12.25;;
26953;SDS011;14508;50.924;11.600;2023-02-15T00:46:49;42.53;;;10.55;;
26953;SDS011;14508;50.924;11.600;2023-02-15T00:49:18;30.10;;;11.63;;
26953;SDS011;14508;50.924;11.600;2023-02-15T00:51:46;56.90;;;11.77;;
26953;SDS011;14508;50.924;11.600;2023-02-15T00:54:14;50.10;;;10.93;;
26953;SDS011;14508;50.924;11.600;2023-02-15T00:56:42;53.03;;;11.32;;
26953;SDS011;14508;50.924;11.600;2023-02-15T00:59:10;63.10;;;11.50;;
26953;SDS011;14508;50.924;11.600;2023-02-15T01:01:38;41.70;;;10.77;;
26953;SDS011;14508;50.924;11.600;2023-02-15T01:04:06;55.35;;;11.13;;
26953;SDS011;14508;50.924;11.600;2023-02-15T01:06:35;53.08;;;11.63;;
26953;SDS011;14508;50.924;11.600;2023-02-15T01:09:03;73.18;;;11.65;;
26953;SDS011;14508;50.924;11.600;2023-02-15T01:11:31;74.53;;;11.95;;
26953;SDS011;14508;50.924;11.600;2023-02-15T01:13:59;52.42;;;11.23;;
26953;SDS011;14508;50.924;11.600;2023-02-15T01:16:27;41.58;;;10.18;;
26953;SDS011;14508;50.924;11.600;2023-02-15T01:18:57;29.38;;;10.43;;
26953;SDS011;14508;50.924;11.600;2023-02-15T01:21:25;44.05;;;10.52;;
26953;SDS011;14508;50.924;11.600;2023-02-15T01:23:55;35.92;;;10.98;;
26953;SDS011;14508;50.924;11.600;2023-02-15T01:26:23;32.50;;;9.77;;
26953;SDS011;14508;50.924;11.600;2023-02-15T01:28:51;25.75;;;9.20;;
26953;SDS011;14508;50.924;11.600;2023-02-15T01:31:19;48.90;;;10.95;;
26953;SDS011;14508;50.924;11.600;2023-02-15T01:33:48;52.50;;;10.30;;
26953;SDS011;14508;50.924;11.600;2023-02-15T01:36:16;36.33;;;10.25;;
26953;SDS011;14508;50.924;11.600;2023-02-15T01:38:44;42.22;;;10.32;;
26953;SDS011;14508;50.924;11.600;2023-02-15T01:41:14;31.15;;;9.00;;
26953;SDS011;14508;50.924;11.600;2023-02-15T01:43:50;37.55;;;9.45;;
26953;SDS011;14508;50.924;11.600;2023-02-15T01:46:22;49.50;;;9.95;;
26953;SDS011;14508;50.924;11.600;2023-02-15T01:48:55;36.25;;;9.75;;
26953;SDS011;14508;50.924;11.600;2023-02-15T01:51:27;44.85;;;9.32;;
26953;SDS011;14508;50.924;11.600;2023-02-15T01:54:00;60.72;;;8.98;;
26953;SDS011;14508;50.924;11.600;2023-02-15T01:56:32;31.77;;;8.48;;
26953;SDS011;14508;50.924;11.600;2023-02-15T01:59:04;42.15;;;9.40;;
26953;SDS011;14508;50.924;11.600;2023-02-15T02:01:35;37.95;;;9.68;;
26953;SDS011;14508;50.924;11.600;2023-02-15T02:04:05;19.98;;;8.52;;
26953;SDS011;14508;50.924;11.600;2023-02-15T02:06:40;39.15;;;8.40;;
26953;SDS011;14508;50.924;11.600;2023-02-15T02:09:08;29.33;;;8.40;;
26953;SDS011;14508;50.924;11.600;2023-02-15T02:11:38;48.33;;;10.25;;
26953;SDS011;14508;50.924;11.600;2023-02-15T02:14:10;39.60;;;9.55;;
26953;SDS011;14508;50.924;11.600;2023-02-15T02:16:40;19.45;;;7.68;;
26953;SDS011;14508;50.924;11.600;2023-02-15T02:19:33;42.72;;;9.55;;
26953;SDS011;14508;50.924;11.600;2023-02-15T02:22:42;31.90;;;7.93;;
26953;SDS011;14508;50.924;11.600;2023-02-15T02:25:36;20.85;;;8.25;;
26953;SDS011;14508;50.924;11.600;2023-02-15T02:28:21;30.52;;;8.07;;
26953;SDS011;14508;50.924;11.600;2023-02-15T02:31:21;30.90;;;9.10;;
26953;SDS011;14508;50.924;11.600;2023-02-15T02:34:13;42.83;;;9.13;;
26953;SDS011;14508;50.924;11.600;2023-02-15T02:36:48;20.05;;;7.53;;
26953;SDS011;14508;50.924;11.600;2023-02-15T02:39:22;22.75;;;8.10;;
26953;SDS011;14508;50.924;11.600;2023-02-15T02:41:59;26.23;;;8.57;;
26953;SDS011;14508;50.924;11.600;2023-02-15T02:44:34;20.58;;;7.65;;
26953;SDS011;14508;50.924;11.600;2023-02-15T02:47:10;21.05;;;8.10;;
26953;SDS011;14508;50.924;11.600;2023-02-15T02:49:43;45.90;;;8.40;;
26953;SDS011;14508;50.924;11.600;2023-02-15T02:55:03;22.65;;;7.68;;
26953;SDS011;14508;50.924;11.600;2023-02-15T02:57:34;25.38;;;8.25;;
26953;SDS011;14508;50.924;11.600;2023-02-15T03:00:06;20.92;;;8.27;;
26953;SDS011;14508;50.924;11.600;2023-02-15T03:02:36;21.42;;;7.75;;
26953;SDS011;14508;50.924;11.600;2023-02-15T03:05:11;24.45;;;7.93;;
26953;SDS011;14508;50.924;11.600;2023-02-15T03:07:42;30.42;;;8.48;;
26953;SDS011;14508;50.924;11.600;2023-02-15T03:10:16;30.27;;;7.60;;
26953;SDS011;14508;50.924;11.600;2023-02-15T03:12:49;17.35;;;7.35;;
26953;SDS011;14508;50.924;11.600;2023-02-15T03:15:19;24.48;;;9.10;;
26953;SDS011;14508;50.924;11.600;2023-02-15T03:17:50;23.33;;;8.13;;
26953;SDS011;14508;50.924;11.600;2023-02-15T03:20:25;18.05;;;7.57;;
26953;SDS011;14508;50.924;11.600;2023-02-15T03:23:00;15.90;;;7.30;;
26953;SDS011;14508;50.924;11.600;2023-02-15T03:25:32;23.35;;;8.02;;
26953;SDS011;14508;50.924;11.600;2023-02-15T03:28:05;29.55;;;8.48;;
26953;SDS011;14508;50.924;11.600;2023-02-15T03:30:35;34.95;;;7.40;;
26953;SDS011;14508;50.924;11.600;2023-02-15T03:33:04;27.10;;;7.47;;
26953;SDS011;14508;50.924;11.600;2023-02-15T03:35:36;26.45;;;8.32;;
26953;SDS011;14508;50.924;11.600;2023-02-15T03:38:11;27.17;;;6.82;;
26953;SDS011;14508;50.924;11.600;2023-02-15T03:40:44;13.63;;;6.00;;
26953;SDS011;14508;50.924;11.600;2023-02-15T03:43:32;8.02;;;5.90;;
26953;SDS011;14508;50.924;11.600;2023-02-15T03:48:39;7.90;;;4.97;;
26953;SDS011;14508;50.924;11.600;2023-02-15T03:51:12;8.75;;;5.63;;
26953;SDS011;14508;50.924;11.600;2023-02-15T03:54:03;7.35;;;5.07;;
26953;SDS011;14508;50.924;11.600;2023-02-15T03:56:34;12.55;;;6.05;;
26953;SDS011;14508;50.924;11.600;2023-02-15T03:59:04;9.35;;;5.68;;
26953;SDS011;14508;50.924;11.600;2023-02-15T04:04:32;13.30;;;5.55;;
26953;SDS011;14508;50.924;11.600;2023-02-15T04:07:04;12.40;;;6.20;;
26953;SDS011;14508;50.924;11.600;2023-02-15T04:09:33;15.55;;;6.88;;
26953;SDS011;14508;50.924;11.600;2023-02-15T04:12:18;26.50;;;7.60;;
26953;SDS011;14508;50.924;11.600;2023-02-15T04:14:46;36.67;;;6.38;;
26953;SDS011;14508;50.924;11.600;2023-02-15T04:17:31;24.75;;;6.35;;
26953;SDS011;14508;50.924;11.600;2023-02-15T04:19:59;23.20;;;6.20;;
26953;SDS011;14508;50.924;11.600;2023-02-15T04:22:46;20.05;;;6.75;;
26953;SDS011;14508;50.924;11.600;2023-02-15T04:25:31;15.82;;;6.80;;
26953;SDS011;14508;50.924;11.600;2023-02-15T04:27:59;36.53;;;7.78;;
26953;SDS011;14508;50.924;11.600;2023-02-15T04:30:27;99.95;;;9.18;;
26953;SDS011;14508;50.924;11.600;2023-02-15T04:32:55;32.38;;;10.00;;
26953;SDS011;14508;50.924;11.600;2023-02-15T04:35:23;35.85;;;8.02;;
26953;SDS011;14508;50.924;11.600;2023-02-15T04:37:53;41.17;;;7.38;;
26953;SDS011;14508;50.924;11.600;2023-02-15T04:40:22;30.23;;;7.65;;
26953;SDS011;14508;50.924;11.600;2023-02-15T04:42:50;18.33;;;7.07;;
26953;SDS011;14508;50.924;11.600;2023-02-15T04:45:18;35.53;;;7.13;;
26953;SDS011;14508;50.924;11.600;2023-02-15T04:47:46;34.78;;;7.47;;
26953;SDS011;14508;50.924;11.600;2023-02-15T04:50:14;26.95;;;7.75;;
26953;SDS011;14508;50.924;11.600;2023-02-15T04:52:42;40.17;;;9.93;;
26953;SDS011;14508;50.924;11.600;2023-02-15T04:55:11;22.98;;;6.50;;
26953;SDS011;14508;50.924;11.600;2023-02-15T04:57:40;19.67;;;6.43;;
26953;SDS011;14508;50.924;11.600;2023-02-15T05:00:08;32.38;;;7.03;;
26953;SDS011;14508;50.924;11.600;2023-02-15T05:02:37;17.13;;;7.18;;
26953;SDS011;14508;50.924;11.600;2023-02-15T05:05:05;23.90;;;7.60;;
26953;SDS011;14508;50.924;11.600;2023-02-15T05:07:35;14.15;;;6.57;;
26953;SDS011;14508;50.924;11.600;2023-02-15T05:10:03;19.67;;;7.22;;
26953;SDS011;14508;50.924;11.600;2023-02-15T05:12:33;27.00;;;7.05;;
26953;SDS011;14508;50.924;11.600;2023-02-15T05:15:01;16.13;;;7.10;;
26953;SDS011;14508;50.924;11.600;2023-02-15T05:17:29;16.40;;;6.85;;
26953;SDS011;14508;50.924;11.600;2023-02-15T05:19:57;22.40;;;6.35;;
26953;SDS011;14508;50.924;11.600;2023-02-15T05:22:25;25.55;;;6.82;;
26953;SDS011;14508;50.924;11.600;2023-02-15T05:24:53;16.75;;;6.38;;
26953;SDS011;14508;50.924;11.600;2023-02-15T05:30:25;13.98;;;6.18;;
26953;SDS011;14508;50.924;11.600;2023-02-15T05:32:53;20.23;;;6.68;;
26953;SDS011;14508;50.924;11.600;2023-02-15T05:35:22;30.63;;;7.47;;
26953;SDS011;14508;50.924;11.600;2023-02-15T05:37:50;19.80;;;7.70;;
26953;SDS011;14508;50.924;11.600;2023-02-15T05:40:18;20.00;;;5.90;;
26953;SDS011;14508;50.924;11.600;2023-02-15T05:42:47;53.13;;;7.82;;
26953;SDS011;14508;50.924;11.600;2023-02-15T05:45:15;21.80;;;7.20;;
26953;SDS011;14508;50.924;11.600;2023-02-15T05:47:43;15.65;;;6.60;;
26953;SDS011;14508;50.924;11.600;2023-02-15T05:50:11;13.88;;;7.25;;
26953;SDS011;14508;50.924;11.600;2023-02-15T05:52:38;16.85;;;7.13;;
26953;SDS011;14508;50.924;11.600;2023-02-15T05:55:06;16.73;;;6.60;;
26953;SDS011;14508;50.924;11.600;2023-02-15T05:57:35;30.08;;;6.82;;
26953;SDS011;14508;50.924;11.600;2023-02-15T06:00:05;16.70;;;6.28;;
26953;SDS011;14508;50.924;11.600;2023-02-15T06:05:07;25.52;;;5.53;;
26953;SDS011;14508;50.924;11.600;2023-02-15T06:07:35;17.10;;;5.93;;
26953;SDS011;14508;50.924;11.600;2023-02-15T06:10:03;18.77;;;7.60;;
26953;SDS011;14508;50.924;11.600;2023-02-15T06:12:32;14.40;;;6.18;;
26953;SDS011;14508;50.924;11.600;2023-02-15T06:15:00;16.65;;;6.90;;
26953;SDS011;14508;50.924;11.600;2023-02-15T06:17:29;29.65;;;6.70;;
26953;SDS011;14508;50.924;11.600;2023-02-15T06:19:57;16.95;;;6.53;;
26953;SDS011;14508;50.924;11.600;2023-02-15T06:22:25;17.20;;;7.00;;
26953;SDS011;14508;50.924;11.600;2023-02-15T06:24:53;16.65;;;7.15;;
26953;SDS011;14508;50.924;11.600;2023-02-15T06:27:21;17.02;;;6.28;;
26953;SDS011;14508;50.924;11.600;2023-02-15T06:29:49;19.95;;;6.75;;
26953;SDS011;14508;50.924;11.600;2023-02-15T06:32:17;13.70;;;6.35;;
26953;SDS011;14508;50.924;11.600;2023-02-15T06:34:47;15.75;;;6.82;;
26953;SDS011;14508;50.924;11.600;2023-02-15T06:37:15;16.40;;;6.25;;
26953;SDS011;14508;50.924;11.600;2023-02-15T06:39:43;17.23;;;7.10;;
26953;SDS011;14508;50.924;11.600;2023-02-15T06:42:11;18.52;;;6.70;;
26953;SDS011;14508;50.924;11.600;2023-02-15T06:44:38;23.17;;;7.00;;
26953;SDS011;14508;50.924;11.600;2023-02-15T06:47:06;16.38;;;6.32;;
26953;SDS011;14508;50.924;11.600;2023-02-15T06:49:34;14.77;;;7.03;;
26953;SDS011;14508;50.924;11.600;2023-02-15T06:52:04;12.27;;;6.00;;
26953;SDS011;14508;50.924;11.600;2023-02-15T06:54:32;18.52;;;6.78;;
26953;SDS011;14508;50.924;11.600;2023-02-15T06:57:00;16.95;;;6.85;;
26953;SDS011;14508;50.924;11.600;2023-02-15T06:59:28;16.45;;;6.90;;
26953;SDS011;14508;50.924;11.600;2023-02-15T07:01:55;14.20;;;7.07;;
26953;SDS011;14508;50.924;11.600;2023-02-15T07:04:23;17.00;;;6.63;;
26953;SDS011;14508;50.924;11.600;2023-02-15T07:06:51;23.75;;;6.78;;
26953;SDS011;14508;50.924;11.600;2023-02-15T07:09:21;29.02;;;6.82;;
26953;SDS011;14508;50.924;11.600;2023-02-15T07:11:48;27.35;;;7.78;;
26953;SDS011;14508;50.924;11.600;2023-02-15T07:14:34;27.10;;;7.93;;
26953;SDS011;14508;50.924;11.600;2023-02-15T07:17:02;20.45;;;6.55;;
26953;SDS011;14508;50.924;11.600;2023-02-15T07:19:32;18.33;;;7.65;;
26953;SDS011;14508;50.924;11.600;2023-02-15T07:22:00;19.23;;;7.75;;
26953;SDS011;14508;50.924;11.600;2023-02-15T07:24:31;25.52;;;8.18;;
26953;SDS011;14508;50.924;11.600;2023-02-15T07:26:59;25.00;;;7.22;;
26953;SDS011;14508;50.924;11.600;2023-02-15T07:29:27;21.17;;;7.22;;
26953;SDS011;14508;50.924;11.600;2023-02-15T07:31:55;27.48;;;8.43;;
26953;SDS011;14508;50.924;11.600;2023-02-15T07:34:23;24.20;;;6.88;;
26953;SDS011;14508;50.924;11.600;2023-02-15T07:36:51;16.38;;;6.70;;
26953;SDS011;14508;50.924;11.600;2023-02-15T07:39:20;16.98;;;7.60;;
26953;SDS011;14508;50.924;11.600;2023-02-15T07:41:49;17.70;;;6.97;;
26953;SDS011;14508;50.924;11.600;2023-02-15T07:44:17;21.52;;;7.10;;
26953;SDS011;14508;50.924;11.600;2023-02-15T07:46:45;18.77;;;7.32;;
26953;SDS011;14508;50.924;11.600;2023-02-15T07:49:13;13.10;;;6.68;;
26953;SDS011;14508;50.924;11.600;2023-02-15T07:51:41;14.65;;;6.18;;
26953;SDS011;14508;50.924;11.600;2023-02-15T07:54:09;12.85;;;6.07;;
26953;SDS011;14508;50.924;11.600;2023-02-15T07:56:37;13.93;;;6.45;;
26953;SDS011;14508;50.924;11.600;2023-02-15T07:59:06;14.35;;;6.38;;
26953;SDS011;14508;50.924;11.600;2023-02-15T08:01:36;20.70;;;7.35;;
26953;SDS011;14508;50.924;11.600;2023-02-15T08:04:06;15.25;;;6.95;;
26953;SDS011;14508;50.924;11.600;2023-02-15T08:06:35;21.73;;;6.53;;
26953;SDS011;14508;50.924;11.600;2023-02-15T08:09:04;15.88;;;7.18;;
26953;SDS011;14508;50.924;11.600;2023-02-15T08:11:34;19.35;;;6.35;;
26953;SDS011;14508;50.924;11.600;2023-02-15T08:14:09;17.63;;;6.70;;
26953;SDS011;14508;50.924;11.600;2023-02-15T08:16:38;14.88;;;6.65;;
26953;SDS011;14508;50.924;11.600;2023-02-15T08:19:08;23.30;;;6.68;;
26953;SDS011;14508;50.924;11.600;2023-02-15T08:21:38;26.00;;;7.60;;
26953;SDS011;14508;50.924;11.600;2023-02-15T08:24:08;13.73;;;6.30;;
26953;SDS011;14508;50.924;11.600;2023-02-15T08:26:37;21.27;;;7.10;;
26953;SDS011;14508;50.924;11.600;2023-02-15T08:29:09;20.95;;;6.85;;
26953;SDS011;14508;50.924;11.600;2023-02-15T08:31:37;18.33;;;7.18;;
26953;SDS011;14508;50.924;11.600;2023-02-15T08:34:07;14.93;;;7.15;;
26953;SDS011;14508;50.924;11.600;2023-02-15T08:36:35;16.30;;;7.25;;
26953;SDS011;14508;50.924;11.600;2023-02-15T08:39:04;15.93;;;6.72;;
26953;SDS011;14508;50.924;11.600;2023-02-15T08:41:33;17.65;;;7.97;;
26953;SDS011;14508;50.924;11.600;2023-02-15T08:44:03;18.02;;;7.45;;
26953;SDS011;14508;50.924;11.600;2023-02-15T08:46:34;25.30;;;7.40;;
26953;SDS011;14508;50.924;11.600;2023-02-15T08:49:04;21.73;;;7.55;;
26953;SDS011;14508;50.924;11.600;2023-02-15T08:51:33;20.50;;;6.82;;
26953;SDS011;14508;50.924;11.600;2023-02-15T08:54:06;16.90;;;7.22;;
26953;SDS011;14508;50.924;11.600;2023-02-15T08:56:36;14.15;;;6.95;;
26953;SDS011;14508;50.924;11.600;2023-02-15T08:59:06;13.63;;;6.93;;
26953;SDS011;14508;50.924;11.600;2023-02-15T09:01:36;13.52;;;6.78;;
26953;SDS011;14508;50.924;11.600;2023-02-15T09:04:05;22.20;;;7.68;;
26953;SDS011;14508;50.924;11.600;2023-02-15T09:06:35;12.05;;;6.50;;
26953;SDS011;14508;50.924;11.600;2023-02-15T09:09:03;14.77;;;6.90;;
26953;SDS011;14508;50.924;11.600;2023-02-15T09:11:33;21.60;;;7.30;;
26953;SDS011;14508;50.924;11.600;2023-02-15T09:14:03;15.38;;;7.32;;
26953;SDS011;14508;50.924;11.600;2023-02-15T09:16:32;21.88;;;8.55;;
26953;SDS011;14508;50.924;11.600;2023-02-15T09:19:02;19.40;;;7.57;;
26953;SDS011;14508;50.924;11.600;2023-02-15T09:21:32;17.75;;;7.97;;
26953;SDS011;14508;50.924;11.600;2023-02-15T09:24:02;19.30;;;8.15;;
26953;SDS011;14508;50.924;11.600;2023-02-15T09:26:32;17.27;;;7.70;;
26953;SDS011;14508;50.924;11.600;2023-02-15T09:29:02;15.43;;;7.80;;
26953;SDS011;14508;50.924;11.600;2023-02-15T09:31:31;15.65;;;7.97;;
26953;SDS011;14508;50.924;11.600;2023-02-15T09:34:01;15.52;;;7.50;;
26953;SDS011;14508;50.924;11.600;2023-02-15T09:36:31;21.00;;;8.02;;
26953;SDS011;14508;50.924;11.600;2023-02-15T09:39:01;13.52;;;6.80;;
26953;SDS011;14508;50.924;11.600;2023-02-15T09:41:41;14.70;;;7.35;;
26953;SDS011;14508;50.924;11.600;2023-02-15T09:44:32;16.58;;;8.02;;
26953;SDS011;14508;50.924;11.600;2023-02-15T09:47:18;14.10;;;7.10;;
26953;SDS011;14508;50.924;11.600;2023-02-15T09:50:08;13.90;;;6.97;;
26953;SDS011;14508;50.924;11.600;2023-02-15T09:52:44;17.35;;;7.95;;
26953;SDS011;14508;50.924;11.600;2023-02-15T09:55:35;14.73;;;7.82;;
26953;SDS011;14508;50.924;11.600;2023-02-15T09:58:12;14.35;;;8.05;;
26953;SDS011;14508;50.924;11.600;2023-02-15T10:00:47;14.87;;;7.53;;
26953;SDS011;14508;50.924;11.600;2023-02-15T10:06:26;14.55;;;7.35;;
26953;SDS011;14508;50.924;11.600;2023-02-15T10:09:14;14.65;;;7.85;;
26953;SDS011;14508;50.924;11.600;2023-02-15T10:11:57;16.92;;;8.18;;
26953;SDS011;14508;50.924;11.600;2023-02-15T10:14:43;17.25;;;7.30;;
26953;SDS011;14508;50.924;11.600;2023-02-15T10:17:28;14.93;;;7.25;;
26953;SDS011;14508;50.924;11.600;2023-02-15T10:20:07;13.52;;;7.60;;
26953;SDS011;14508;50.924;11.600;2023-02-15T10:22:50;20.08;;;6.38;;
26953;SDS011;14508;50.924;11.600;2023-02-15T10:25:34;13.70;;;7.65;;
26953;SDS011;14508;50.924;11.600;2023-02-15T10:28:09;16.77;;;7.82;;
26953;SDS011;14508;50.924;11.600;2023-02-15T10:30:44;18.70;;;8.68;;
26953;SDS011;14508;50.924;11.600;2023-02-15T10:33:29;16.60;;;8.02;;
26953;SDS011;14508;50.924;11.600;2023-02-15T10:36:11;17.02;;;7.28;;
26953;SDS011;14508;50.924;11.600;2023-02-15T10:38:53;16.13;;;6.88;;
26953;SDS011;14508;50.924;11.600;2023-02-15T10:41:31;17.60;;;7.20;;
26953;SDS011;14508;50.924;11.600;2023-02-15T10:44:19;13.95;;;6.80;;
26953;SDS011;14508;50.924;11.600;2023-02-15T10:47:03;15.75;;;6.97;;
26953;SDS011;14508;50.924;11.600;2023-02-15T10:49:54;14.82;;;6.55;;
26953;SDS011;14508;50.924;11.600;2023-02-15T10:52:37;21.80;;;6.30;;
26953;SDS011;14508;50.924;11.600;2023-02-15T10:55:24;13.90;;;6.95;;
26953;SDS011;14508;50.924;11.600;2023-02-15T10:58:05;14.57;;;7.03;;
26953;SDS011;14508;50.924;11.600;2023-02-15T11:00:44;20.77;;;9.10;;
26953;SDS011;14508;50.924;11.600;2023-02-15T11:03:18;10.60;;;6.68;;
26953;SDS011;14508;50.924;11.600;2023-02-15T11:06:00;12.52;;;6.50;;
26953;SDS011;14508;50.924;11.600;2023-02-15T11:08:32;11.88;;;5.45;;
26953;SDS011;14508;50.924;11.600;2023-02-15T11:11:06;15.02;;;5.60;;
26953;SDS011;14508;50.924;11.600;2023-02-15T11:13:38;13.95;;;6.05;;
26953;SDS011;14508;50.924;11.600;2023-02-15T11:16:11;10.73;;;5.82;;
26953;SDS011;14508;50.924;11.600;2023-02-15T11:18:45;12.05;;;6.35;;
26953;SDS011;14508;50.924;11.600;2023-02-15T11:21:17;15.52;;;5.93;;
26953;SDS011;14508;50.924;11.600;2023-02-15T11:23:49;17.75;;;6.00;;
26953;SDS011;14508;50.924;11.600;2023-02-15T11:26:21;13.30;;;7.03;;
26953;SDS011;14508;50.924;11.600;2023-02-15T11:28:57;16.85;;;6.45;;
26953;SDS011;14508;50.924;11.600;2023-02-15T11:31:30;12.32;;;6.35;;
26953;SDS011;14508;50.924;11.600;2023-02-15T11:34:11;14.45;;;5.68;;
26953;SDS011;14508;50.924;11.600;2023-02-15T11:36:47;8.25;;;5.28;;
26953;SDS011;14508;50.924;11.600;2023-02-15T11:39:18;12.52;;;5.45;;
26953;SDS011;14508;50.924;11.600;2023-02-15T11:41:49;14.20;;;6.45;;
26953;SDS011;14508;50.924;11.600;2023-02-15T11:44:20;11.52;;;5.68;;
26953;SDS011;14508;50.924;11.600;2023-02-15T11:46:53;15.75;;;6.18;;
26953;SDS011;14508;50.924;11.600;2023-02-15T11:49:22;10.68;;;5.03;;
26953;SDS011;14508;50.924;11.600;2023-02-15T11:51:54;17.73;;;5.72;;
26953;SDS011;14508;50.924;11.600;2023-02-15T11:54:26;11.43;;;5.63;;
26953;SDS011;14508;50.924;11.600;2023-02-15T11:56:58;14.32;;;6.35;;
26953;SDS011;14508;50.924;11.600;2023-02-15T11:59:31;11.52;;;5.88;;
26953;SDS011;14508;50.924;11.600;2023-02-15T12:02:02;9.65;;;5.22;;
26953;SDS011;14508;50.924;11.600;2023-02-15T12:04:40;17.90;;;6.43;;
26953;SDS011;14508;50.924;11.600;2023-02-15T12:07:13;13.95;;;6.45;;
26953;SDS011;14508;50.924;11.600;2023-02-15T12:09:45;14.23;;;5.82;;
26953;SDS011;14508;50.924;11.600;2023-02-15T12:12:21;12.93;;;5.53;;
26953;SDS011;14508;50.924;11.600;2023-02-15T12:14:51;10.57;;;5.70;;
26953;SDS011;14508;50.924;11.600;2023-02-15T12:17:20;11.50;;;5.90;;
26953;SDS011;14508;50.924;11.600;2023-02-15T12:19:50;10.82;;;6.15;;
26953;SDS011;14508;50.924;11.600;2023-02-15T12:22:21;12.60;;;5.50;;
26953;SDS011;14508;50.924;11.600;2023-02-15T12:24:52;14.43;;;6.70;;
26953;SDS011;14508;50.924;11.600;2023-02-15T12:27:25;9.93;;;5.40;;
26953;SDS011;14508;50.924;11.600;2023-02-15T12:29:56;10.50;;;5.72;;
26953;SDS011;14508;50.924;11.600;2023-02-15T12:32:27;12.82;;;5.82;;
26953;SDS011;14508;50.924;11.600;2023-02-15T12:34:59;14.43;;;5.85;;
26953;SDS011;14508;50.924;11.600;2023-02-15T12:37:29;11.98;;;5.65;;
26953;SDS011;14508;50.924;11.600;2023-02-15T12:40:02;11.32;;;5.05;;
26953;SDS011;14508;50.924;11.600;2023-02-15T12:42:46;13.68;;;5.90;;
26953;SDS011;14508;50.924;11.600;2023-02-15T12:45:22;9.93;;;5.53;;
26953;SDS011;14508;50.924;11.600;2023-02-15T12:48:07;13.25;;;5.68;;
26953;SDS011;14508;50.924;11.600;2023-02-15T12:50:43;15.35;;;5.10;;
26953;SDS011;14508;50.924;11.600;2023-02-15T12:53:20;11.02;;;5.13;;
26953;SDS011;14508;50.924;11.600;2023-02-15T12:55:50;8.68;;;4.43;;
26953;SDS011;14508;50.924;11.600;2023-02-15T12:58:22;7.95;;;4.50;;
26953;SDS011;14508;50.924;11.600;2023-02-15T13:01:02;9.35;;;4.72;;
26953;SDS011;14508;50.924;11.600;2023-02-15T13:03:56;10.27;;;4.70;;
26953;SDS011;14508;50.924;11.600;2023-02-15T13:06:26;13.30;;;5.13;;
26953;SDS011;14508;50.924;11.600;2023-02-15T13:08:55;8.07;;;4.88;;
26953;SDS011;14508;50.924;11.600;2023-02-15T13:11:32;10.77;;;4.38;;
26953;SDS011;14508;50.924;11.600;2023-02-15T13:14:03;10.48;;;4.25;;
26953;SDS011;14508;50.924;11.600;2023-02-15T13:16:44;12.57;;;4.65;;
26953;SDS011;14508;50.924;11.600;2023-02-15T13:19:15;10.10;;;4.78;;
26953;SDS011;14508;50.924;11.600;2023-02-15T13:21:46;11.35;;;4.35;;
26953;SDS011;14508;50.924;11.600;2023-02-15T13:24:17;7.57;;;3.47;;
26953;SDS011;14508;50.924;11.600;2023-02-15T13:26:50;11.75;;;3.97;;
26953;SDS011;14508;50.924;11.600;2023-02-15T13:29:36;9.98;;;3.03;;
26953;SDS011;14508;50.924;11.600;2023-02-15T13:32:06;7.90;;;2.38;;
26953;SDS011;14508;50.924;11.600;2023-02-15T13:34:42;3.65;;;2.33;;
26953;SDS011;14508;50.924;11.600;2023-02-15T13:37:12;3.83;;;2.35;;
26953;SDS011;14508;50.924;11.600;2023-02-15T13:39:46;6.53;;;2.28;;
26953;SDS011;14508;50.924;11.600;2023-02-15T13:42:21;8.43;;;2.97;;
26953;SDS011;14508;50.924;11.600;2023-02-15T13:45:05;6.18;;;3.17;;
26953;SDS011;14508;50.924;11.600;2023-02-15T13:47:49;7.40;;;3.58;;
26953;SDS011;14508;50.924;11.600;2023-02-15T13:50:32;6.63;;;3.17;;
26953;SDS011;14508;50.924;11.600;2023-02-15T13:53:17;5.22;;;2.70;;
26953;SDS011;14508;50.924;11.600;2023-02-15T13:55:55;5.00;;;2.38;;
26953;SDS011;14508;50.924;11.600;2023-02-15T13:58:41;7.25;;;2.10;;
26953;SDS011;14508;50.924;11.600;2023-02-15T14:01:30;8.68;;;2.22;;
26953;SDS011;14508;50.924;11.600;2023-02-15T14:07:08;10.20;;;4.68;;
26953;SDS011;14508;50.924;11.600;2023-02-15T14:09:48;8.40;;;3.67;;
26953;SDS011;14508;50.924;11.600;2023-02-15T14:12:30;8.68;;;4.10;;
26953;SDS011;14508;50.924;11.600;2023-02-15T14:15:14;10.27;;;4.13;;
26953;SDS011;14508;50.924;11.600;2023-02-15T14:18:01;11.48;;;4.05;;
26953;SDS011;14508;50.924;11.600;2023-02-15T14:20:47;12.52;;;4.05;;
26953;SDS011;14508;50.924;11.600;2023-02-15T14:23:31;10.80;;;4.18;;
26953;SDS011;14508;50.924;11.600;2023-02-15T14:26:10;12.73;;;3.83;;
26953;SDS011;14508;50.924;11.600;2023-02-15T14:28:46;4.78;;;3.13;;
26953;SDS011;14508;50.924;11.600;2023-02-15T14:31:18;7.85;;;3.30;;
26953;SDS011;14508;50.924;11.600;2023-02-15T14:33:55;5.53;;;3.38;;
26953;SDS011;14508;50.924;11.600;2023-02-15T14:36:24;8.45;;;3.25;;
26953;SDS011;14508;50.924;11.600;2023-02-15T14:38:59;10.38;;;3.83;;
26953;SDS011;14508;50.924;11.600;2023-02-15T14:41:56;12.55;;;4.93;;
26953;SDS011;14508;50.924;11.600;2023-02-15T14:44:27;7.97;;;4.35;;
26953;SDS011;14508;50.924;11.600;2023-02-15T14:47:04;9.43;;;5.13;;
26953;SDS011;14508;50.924;11.600;2023-02-15T14:49:39;11.90;;;5.20;;
26953;SDS011;14508;50.924;11.600;2023-02-15T14:52:07;14.02;;;6.13;;
26953;SDS011;14508;50.924;11.600;2023-02-15T14:54:53;9.05;;;4.57;;
26953;SDS011;14508;50.924;11.600;2023-02-15T14:57:28;10.32;;;5.18;;
26953;SDS011;14508;50.924;11.600;2023-02-15T15:00:03;8.95;;;4.57;;
26953;SDS011;14508;50.924;11.600;2023-02-15T15:02:51;9.48;;;4.85;;
26953;SDS011;14508;50.924;11.600;2023-02-15T15:05:24;9.73;;;4.90;;
26953;SDS011;14508;50.924;11.600;2023-02-15T15:08:00;7.82;;;4.65;;
26953;SDS011;14508;50.924;11.600;2023-02-15T15:10:34;8.63;;;4.78;;
26953;SDS011;14508;50.924;11.600;2023-02-15T15:18:53;9.60;;;4.60;;
26953;SDS011;14508;50.924;11.600;2023-02-15T15:24:46;9.63;;;5.65;;